VOML/IXE METAR and TAF weather

Enter ICAO airport designator
Station Type Date Time Source
VOML METAR 2019/06/26 05:30 UTC NOAA

VOML 260530Z 33008KT 5000 -DZ FEW005 SCT012 FEW025TCU BKN080 25/23 Q1009 NOSIG


Station Type Date Time Source
VOML Decoded METAR 2019/06/26 05:30 UTC NOAA

Mangalore / Bajpe, India (VOML) 12-55N 074-53E 102M
Jun 26, 2019 - 01:30 AM EDT / 2019.06.26 0530 UTC
Wind: from the NNW (330 degrees) at 9 MPH (8 KT):0
Visibility: 3 mile(s):0
Sky conditions: mostly cloudy
Weather: light drizzle; Towering cumulus clouds observed
Temperature: 77 F (25 C)
Dew Point: 73 F (23 C)
Relative Humidity: 88%
Pressure (altimeter): 29.80 in. Hg (1009 hPa)
ob: VOML 260530Z 33008KT 5000 -DZ FEW005 SCT012 FEW025TCU BKN080 25/23 Q1009 NOSIG
cycle: 5

Station Type Date Time Source
VOML TAF 2019/06/26 06:00 UTC NOAA

TAF VOML 260500Z 2606/2712 27010KT 5000 -RA DZ SCT012 SCT080
TEMPO 2609/2615 3000 TSRA RA SCT006 SCT012 FEW025CB BKN080
BECMG 2616/2617 VRB02KT
BECMG 2620/2621 11010KT
TEMPO 2621/2703 3000 RA BR SCT004 SCT012 FEW025CB BKN080
BECMG 2706/2707 27010KT
TEMPO 2709/2712 3000 RA DZ SCT006 SCT012 FEW025CB BKN080

Example: see airport list